sensor_id;sensor_type;location;lat;lon;timestamp;temperature;humidity
42913;DHT22;50720;54.324;18.558;2022-11-20T00:01:56;-2.20;99.90
42913;DHT22;50720;54.324;18.558;2022-11-20T00:04:27;-2.20;99.90
42913;DHT22;50720;54.324;18.558;2022-11-20T00:06:56;-2.20;99.90
42913;DHT22;50720;54.324;18.558;2022-11-20T00:09:26;-2.10;99.90
42913;DHT22;50720;54.324;18.558;2022-11-20T00:11:56;-2.10;99.90
42913;DHT22;50720;54.324;18.558;2022-11-20T00:14:27;-2.10;99.90
42913;DHT22;50720;54.324;18.558;2022-11-20T00:16:56;-2.10;99.90
42913;DHT22;50720;54.324;18.558;2022-11-20T00:19:26;-2.10;99.90
42913;DHT22;50720;54.324;18.558;2022-11-20T00:21:56;-2.10;99.90
42913;DHT22;50720;54.324;18.558;2022-11-20T00:24:26;-2.10;99.90
42913;DHT22;50720;54.324;18.558;2022-11-20T00:26:55;-2.10;99.90
42913;DHT22;50720;54.324;18.558;2022-11-20T00:29:27;-2.10;99.90
42913;DHT22;50720;54.324;18.558;2022-11-20T00:31:56;-2.10;99.90
42913;DHT22;50720;54.324;18.558;2022-11-20T00:34:26;-2.00;99.90
42913;DHT22;50720;54.324;18.558;2022-11-20T00:36:56;-2.00;99.90
42913;DHT22;50720;54.324;18.558;2022-11-20T00:39:26;-2.10;99.90
42913;DHT22;50720;54.324;18.558;2022-11-20T00:41:55;-2.10;99.90
42913;DHT22;50720;54.324;18.558;2022-11-20T00:44:27;-2.10;99.90
42913;DHT22;50720;54.324;18.558;2022-11-20T00:46:56;-2.10;99.90
42913;DHT22;50720;54.324;18.558;2022-11-20T00:49:27;-2.00;99.90
42913;DHT22;50720;54.324;18.558;2022-11-20T00:51:56;-2.10;99.90
42913;DHT22;50720;54.324;18.558;2022-11-20T00:54:25;-2.10;99.90
42913;DHT22;50720;54.324;18.558;2022-11-20T00:56:55;-2.10;99.90
42913;DHT22;50720;54.324;18.558;2022-11-20T00:59:26;-2.10;99.90
42913;DHT22;50720;54.324;18.558;2022-11-20T01:01:56;-2.10;99.90
42913;DHT22;50720;54.324;18.558;2022-11-20T01:04:25;-2.10;99.90
42913;DHT22;50720;54.324;18.558;2022-11-20T01:06:55;-2.10;99.90
42913;DHT22;50720;54.324;18.558;2022-11-20T01:09:25;-2.10;99.90
42913;DHT22;50720;54.324;18.558;2022-11-20T01:11:54;-2.10;99.90
42913;DHT22;50720;54.324;18.558;2022-11-20T01:14:24;-2.20;99.90
42913;DHT22;50720;54.324;18.558;2022-11-20T01:16:55;-2.20;99.90
42913;DHT22;50720;54.324;18.558;2022-11-20T01:19:25;-2.20;99.90
42913;DHT22;50720;54.324;18.558;2022-11-20T01:21:54;-2.20;99.90
42913;DHT22;50720;54.324;18.558;2022-11-20T01:24:24;-2.20;99.90
42913;DHT22;50720;54.324;18.558;2022-11-20T01:26:54;-2.20;99.90
42913;DHT22;50720;54.324;18.558;2022-11-20T01:29:24;-2.10;99.90
42913;DHT22;50720;54.324;18.558;2022-11-20T01:31:55;-2.20;99.90
42913;DHT22;50720;54.324;18.558;2022-11-20T01:34:25;-2.10;99.90
42913;DHT22;50720;54.324;18.558;2022-11-20T01:36:54;-2.10;99.90
42913;DHT22;50720;54.324;18.558;2022-11-20T01:39:26;-2.10;99.90
42913;DHT22;50720;54.324;18.558;2022-11-20T01:41:56;-2.10;99.90
42913;DHT22;50720;54.324;18.558;2022-11-20T01:44:50;-2.10;99.90
42913;DHT22;50720;54.324;18.558;2022-11-20T01:47:26;-2.20;99.90
42913;DHT22;50720;54.324;18.558;2022-11-20T01:50:00;-2.10;99.90
42913;DHT22;50720;54.324;18.558;2022-11-20T01:52:34;-2.10;99.90
42913;DHT22;50720;54.324;18.558;2022-11-20T01:55:07;-2.10;99.90
42913;DHT22;50720;54.324;18.558;2022-11-20T01:57:39;-2.10;99.90
42913;DHT22;50720;54.324;18.558;2022-11-20T02:00:12;-2.10;99.90
42913;DHT22;50720;54.324;18.558;2022-11-20T02:02:47;-2.10;99.90
42913;DHT22;50720;54.324;18.558;2022-11-20T02:05:21;-2.00;99.90
42913;DHT22;50720;54.324;18.558;2022-11-20T02:07:53;-2.10;99.90
42913;DHT22;50720;54.324;18.558;2022-11-20T02:10:24;-2.00;99.90
42913;DHT22;50720;54.324;18.558;2022-11-20T02:12:53;-2.10;99.90
42913;DHT22;50720;54.324;18.558;2022-11-20T02:15:41;-2.10;99.90
42913;DHT22;50720;54.324;18.558;2022-11-20T02:18:14;-2.10;99.90
42913;DHT22;50720;54.324;18.558;2022-11-20T02:20:48;-2.10;99.90
42913;DHT22;50720;54.324;18.558;2022-11-20T02:23:24;-2.10;99.90
42913;DHT22;50720;54.324;18.558;2022-11-20T02:25:58;-2.10;99.90
42913;DHT22;50720;54.324;18.558;2022-11-20T02:28:30;-2.00;99.90
42913;DHT22;50720;54.324;18.558;2022-11-20T02:31:01;-2.10;99.90
42913;DHT22;50720;54.324;18.558;2022-11-20T02:33:30;-2.10;99.90
42913;DHT22;50720;54.324;18.558;2022-11-20T02:36:00;-2.10;99.90
42913;DHT22;50720;54.324;18.558;2022-11-20T02:38:30;-2.10;99.90
42913;DHT22;50720;54.324;18.558;2022-11-20T02:41:02;-2.10;99.90
42913;DHT22;50720;54.324;18.558;2022-11-20T02:43:31;-2.10;99.90
42913;DHT22;50720;54.324;18.558;2022-11-20T02:46:01;-2.10;99.90
42913;DHT22;50720;54.324;18.558;2022-11-20T02:48:31;-2.00;99.90
42913;DHT22;50720;54.324;18.558;2022-11-20T02:51:01;-2.00;99.90
42913;DHT22;50720;54.324;18.558;2022-11-20T02:53:30;-1.30;99.90
42913;DHT22;50720;54.324;18.558;2022-11-20T02:56:02;-2.00;99.90
42913;DHT22;50720;54.324;18.558;2022-11-20T02:58:31;-2.00;99.90
42913;DHT22;50720;54.324;18.558;2022-11-20T03:01:01;-2.00;99.90
42913;DHT22;50720;54.324;18.558;2022-11-20T03:03:30;-2.00;99.90
42913;DHT22;50720;54.324;18.558;2022-11-20T03:06:00;-2.10;99.90
42913;DHT22;50720;54.324;18.558;2022-11-20T03:08:30;-2.00;99.90
42913;DHT22;50720;54.324;18.558;2022-11-20T03:11:04;-2.00;99.90
42913;DHT22;50720;54.324;18.558;2022-11-20T03:13:34;-2.10;99.90
42913;DHT22;50720;54.324;18.558;2022-11-20T03:16:07;-2.10;99.90
42913;DHT22;50720;54.324;18.558;2022-11-20T03:18:36;-2.10;99.90
42913;DHT22;50720;54.324;18.558;2022-11-20T03:21:07;-2.10;99.90
42913;DHT22;50720;54.324;18.558;2022-11-20T03:23:37;-2.10;99.90
42913;DHT22;50720;54.324;18.558;2022-11-20T03:26:11;-2.10;99.90
42913;DHT22;50720;54.324;18.558;2022-11-20T03:28:42;-2.10;99.90
42913;DHT22;50720;54.324;18.558;2022-11-20T03:31:17;-2.10;99.90
42913;DHT22;50720;54.324;18.558;2022-11-20T03:33:46;-2.10;99.90
42913;DHT22;50720;54.324;18.558;2022-11-20T03:36:18;-2.10;99.90
42913;DHT22;50720;54.324;18.558;2022-11-20T03:38:48;-2.10;99.90
42913;DHT22;50720;54.324;18.558;2022-11-20T03:41:21;-2.00;99.90
42913;DHT22;50720;54.324;18.558;2022-11-20T03:43:52;-2.00;99.90
42913;DHT22;50720;54.324;18.558;2022-11-20T03:46:23;-2.00;99.90
42913;DHT22;50720;54.324;18.558;2022-11-20T03:48:53;-2.00;99.90
42913;DHT22;50720;54.324;18.558;2022-11-20T03:51:24;-2.00;99.90
42913;DHT22;50720;54.324;18.558;2022-11-20T03:53:56;-1.90;99.90
42913;DHT22;50720;54.324;18.558;2022-11-20T03:56:30;-2.00;99.90
42913;DHT22;50720;54.324;18.558;2022-11-20T03:59:00;-2.00;99.90
42913;DHT22;50720;54.324;18.558;2022-11-20T04:01:32;-2.00;99.90
42913;DHT22;50720;54.324;18.558;2022-11-20T04:04:02;-2.00;99.90
42913;DHT22;50720;54.324;18.558;2022-11-20T04:06:36;-2.00;99.90
42913;DHT22;50720;54.324;18.558;2022-11-20T04:09:06;-2.00;99.90
42913;DHT22;50720;54.324;18.558;2022-11-20T04:11:40;-2.00;99.90
42913;DHT22;50720;54.324;18.558;2022-11-20T04:14:13;-2.10;99.90
42913;DHT22;50720;54.324;18.558;2022-11-20T04:16:44;-2.10;99.90
42913;DHT22;50720;54.324;18.558;2022-11-20T04:19:15;-2.10;99.90
42913;DHT22;50720;54.324;18.558;2022-11-20T04:21:46;-2.20;99.90
42913;DHT22;50720;54.324;18.558;2022-11-20T04:24:15;-2.20;99.90
42913;DHT22;50720;54.324;18.558;2022-11-20T04:26:47;-2.20;99.90
42913;DHT22;50720;54.324;18.558;2022-11-20T04:29:16;-2.30;99.90
42913;DHT22;50720;54.324;18.558;2022-11-20T04:31:47;-2.30;99.90
42913;DHT22;50720;54.324;18.558;2022-11-20T04:34:16;-2.40;99.90
42913;DHT22;50720;54.324;18.558;2022-11-20T04:36:46;-2.40;99.90
42913;DHT22;50720;54.324;18.558;2022-11-20T04:39:15;-2.50;99.90
42913;DHT22;50720;54.324;18.558;2022-11-20T04:41:47;-2.60;99.90
42913;DHT22;50720;54.324;18.558;2022-11-20T04:44:36;-2.60;99.90
42913;DHT22;50720;54.324;18.558;2022-11-20T04:47:07;-2.70;99.90
42913;DHT22;50720;54.324;18.558;2022-11-20T04:49:36;-2.80;99.90
42913;DHT22;50720;54.324;18.558;2022-11-20T04:52:06;-2.80;99.90
42913;DHT22;50720;54.324;18.558;2022-11-20T04:54:35;-2.80;99.90
42913;DHT22;50720;54.324;18.558;2022-11-20T04:57:07;-2.90;99.90
42913;DHT22;50720;54.324;18.558;2022-11-20T04:59:41;-2.90;99.90
42913;DHT22;50720;54.324;18.558;2022-11-20T05:02:11;-3.00;99.90
42913;DHT22;50720;54.324;18.558;2022-11-20T05:04:41;-3.00;99.90
42913;DHT22;50720;54.324;18.558;2022-11-20T05:07:10;-3.00;99.90
42913;DHT22;50720;54.324;18.558;2022-11-20T05:09:40;-3.00;99.90
42913;DHT22;50720;54.324;18.558;2022-11-20T05:12:11;-3.10;99.90
42913;DHT22;50720;54.324;18.558;2022-11-20T05:14:40;-3.10;99.90
42913;DHT22;50720;54.324;18.558;2022-11-20T05:17:11;-3.10;99.90
42913;DHT22;50720;54.324;18.558;2022-11-20T05:19:40;-3.10;99.90
42913;DHT22;50720;54.324;18.558;2022-11-20T05:22:10;-3.00;99.90
42913;DHT22;50720;54.324;18.558;2022-11-20T05:24:40;-3.00;99.90
42913;DHT22;50720;54.324;18.558;2022-11-20T05:27:11;-3.00;99.90
42913;DHT22;50720;54.324;18.558;2022-11-20T05:29:40;-3.00;99.90
42913;DHT22;50720;54.324;18.558;2022-11-20T05:32:10;-3.00;99.90
42913;DHT22;50720;54.324;18.558;2022-11-20T05:34:40;-3.00;99.90
42913;DHT22;50720;54.324;18.558;2022-11-20T05:37:09;-2.90;99.90
42913;DHT22;50720;54.324;18.558;2022-11-20T05:39:39;-3.00;99.90
42913;DHT22;50720;54.324;18.558;2022-11-20T05:42:09;-3.00;99.90
42913;DHT22;50720;54.324;18.558;2022-11-20T05:44:57;-3.10;99.90
42913;DHT22;50720;54.324;18.558;2022-11-20T05:47:27;-3.00;99.90
42913;DHT22;50720;54.324;18.558;2022-11-20T05:49:57;-3.00;99.90
42913;DHT22;50720;54.324;18.558;2022-11-20T05:52:28;-3.00;99.90
42913;DHT22;50720;54.324;18.558;2022-11-20T05:54:58;-3.00;99.90
42913;DHT22;50720;54.324;18.558;2022-11-20T05:57:28;-3.20;99.90
42913;DHT22;50720;54.324;18.558;2022-11-20T05:59:59;-3.20;99.90
42913;DHT22;50720;54.324;18.558;2022-11-20T06:02:29;-3.20;99.90
42913;DHT22;50720;54.324;18.558;2022-11-20T06:04:58;-3.20;99.90
42913;DHT22;50720;54.324;18.558;2022-11-20T06:07:28;-3.20;99.90
42913;DHT22;50720;54.324;18.558;2022-11-20T06:09:57;-3.30;99.90
42913;DHT22;50720;54.324;18.558;2022-11-20T06:12:27;-3.30;99.90
42913;DHT22;50720;54.324;18.558;2022-11-20T06:14:58;-3.30;99.90
42913;DHT22;50720;54.324;18.558;2022-11-20T06:17:28;-3.30;99.90
42913;DHT22;50720;54.324;18.558;2022-11-20T06:19:58;-3.20;99.90
42913;DHT22;50720;54.324;18.558;2022-11-20T06:22:28;-3.30;99.90
42913;DHT22;50720;54.324;18.558;2022-11-20T06:24:57;-3.30;99.90
42913;DHT22;50720;54.324;18.558;2022-11-20T06:27:28;-3.30;99.90
42913;DHT22;50720;54.324;18.558;2022-11-20T06:29:58;-3.20;99.90
42913;DHT22;50720;54.324;18.558;2022-11-20T06:32:28;-3.20;99.90
42913;DHT22;50720;54.324;18.558;2022-11-20T06:34:58;-3.20;99.90
42913;DHT22;50720;54.324;18.558;2022-11-20T06:37:27;-3.10;99.90
42913;DHT22;50720;54.324;18.558;2022-11-20T06:39:57;-3.10;99.90
42913;DHT22;50720;54.324;18.558;2022-11-20T06:42:27;-3.10;99.90
42913;DHT22;50720;54.324;18.558;2022-11-20T06:44:58;-3.10;99.90
42913;DHT22;50720;54.324;18.558;2022-11-20T06:47:28;-3.00;99.90
42913;DHT22;50720;54.324;18.558;2022-11-20T06:49:57;-3.00;99.90
42913;DHT22;50720;54.324;18.558;2022-11-20T06:52:27;-3.00;99.90
42913;DHT22;50720;54.324;18.558;2022-11-20T06:54:57;-2.90;99.90
42913;DHT22;50720;54.324;18.558;2022-11-20T06:57:26;-2.90;99.90
42913;DHT22;50720;54.324;18.558;2022-11-20T06:59:57;-2.80;99.90
42913;DHT22;50720;54.324;18.558;2022-11-20T07:02:27;-2.70;99.90
42913;DHT22;50720;54.324;18.558;2022-11-20T07:04:56;-2.80;99.90
42913;DHT22;50720;54.324;18.558;2022-11-20T07:07:26;-2.70;99.90
42913;DHT22;50720;54.324;18.558;2022-11-20T07:09:55;-2.60;99.90
42913;DHT22;50720;54.324;18.558;2022-11-20T07:12:25;-2.50;99.90
42913;DHT22;50720;54.324;18.558;2022-11-20T07:14:55;-2.50;99.90
42913;DHT22;50720;54.324;18.558;2022-11-20T07:17:26;-2.50;99.90
42913;DHT22;50720;54.324;18.558;2022-11-20T07:19:56;-2.50;99.90
42913;DHT22;50720;54.324;18.558;2022-11-20T07:22:26;-2.40;99.90
42913;DHT22;50720;54.324;18.558;2022-11-20T07:24:55;-2.50;99.90
42913;DHT22;50720;54.324;18.558;2022-11-20T07:27:25;-2.50;99.90
42913;DHT22;50720;54.324;18.558;2022-11-20T07:29:55;-2.40;99.90
42913;DHT22;50720;54.324;18.558;2022-11-20T07:32:26;-2.50;99.90
42913;DHT22;50720;54.324;18.558;2022-11-20T07:34:56;-2.50;99.90
42913;DHT22;50720;54.324;18.558;2022-11-20T07:37:26;-2.50;99.90
42913;DHT22;50720;54.324;18.558;2022-11-20T07:39:55;-2.40;99.90
42913;DHT22;50720;54.324;18.558;2022-11-20T07:42:25;-2.40;99.90
42913;DHT22;50720;54.324;18.558;2022-11-20T07:44:54;-2.30;99.90
42913;DHT22;50720;54.324;18.558;2022-11-20T07:47:26;-2.20;99.90
42913;DHT22;50720;54.324;18.558;2022-11-20T07:49:55;-2.20;99.90
42913;DHT22;50720;54.324;18.558;2022-11-20T07:52:26;-2.20;99.90
42913;DHT22;50720;54.324;18.558;2022-11-20T07:54:55;-2.20;99.90
42913;DHT22;50720;54.324;18.558;2022-11-20T07:57:25;-2.10;99.90
42913;DHT22;50720;54.324;18.558;2022-11-20T07:59:55;-2.10;99.90
42913;DHT22;50720;54.324;18.558;2022-11-20T08:02:26;-2.10;99.90
42913;DHT22;50720;54.324;18.558;2022-11-20T08:04:55;-2.00;99.90
42913;DHT22;50720;54.324;18.558;2022-11-20T08:07:25;-2.00;99.90
42913;DHT22;50720;54.324;18.558;2022-11-20T08:09:55;-2.00;99.90
42913;DHT22;50720;54.324;18.558;2022-11-20T08:12:26;-1.90;99.90
42913;DHT22;50720;54.324;18.558;2022-11-20T08:15:13;-1.90;99.90
42913;DHT22;50720;54.324;18.558;2022-11-20T08:17:44;-1.80;99.90
42913;DHT22;50720;54.324;18.558;2022-11-20T08:20:34;-1.80;99.90
42913;DHT22;50720;54.324;18.558;2022-11-20T08:23:06;-1.70;99.90
42913;DHT22;50720;54.324;18.558;2022-11-20T08:25:36;-1.70;99.90
42913;DHT22;50720;54.324;18.558;2022-11-20T08:28:09;-1.60;99.90
42913;DHT22;50720;54.324;18.558;2022-11-20T08:30:47;-1.70;99.90
42913;DHT22;50720;54.324;18.558;2022-11-20T08:33:20;-1.70;99.90
42913;DHT22;50720;54.324;18.558;2022-11-20T08:35:49;-1.70;99.90
42913;DHT22;50720;54.324;18.558;2022-11-20T08:38:19;-1.70;99.90
42913;DHT22;50720;54.324;18.558;2022-11-20T08:40:49;-1.70;99.90
42913;DHT22;50720;54.324;18.558;2022-11-20T08:43:33;-1.80;99.90
42913;DHT22;50720;54.324;18.558;2022-11-20T08:46:02;-1.80;99.90
42913;DHT22;50720;54.324;18.558;2022-11-20T08:48:33;-1.80;99.90
42913;DHT22;50720;54.324;18.558;2022-11-20T08:51:02;-1.70;99.90
42913;DHT22;50720;54.324;18.558;2022-11-20T08:53:32;-1.60;99.90
42913;DHT22;50720;54.324;18.558;2022-11-20T08:56:02;-1.70;99.90
42913;DHT22;50720;54.324;18.558;2022-11-20T08:58:32;-1.70;99.90
42913;DHT22;50720;54.324;18.558;2022-11-20T09:01:22;-1.60;99.90
42913;DHT22;50720;54.324;18.558;2022-11-20T09:03:55;-1.60;99.90
42913;DHT22;50720;54.324;18.558;2022-11-20T09:06:24;-1.60;99.90
42913;DHT22;50720;54.324;18.558;2022-11-20T09:08:55;-1.60;99.90
42913;DHT22;50720;54.324;18.558;2022-11-20T09:11:30;-1.60;99.90
42913;DHT22;50720;54.324;18.558;2022-11-20T09:14:00;-1.60;99.90
42913;DHT22;50720;54.324;18.558;2022-11-20T09:16:30;-1.50;99.90
42913;DHT22;50720;54.324;18.558;2022-11-20T09:19:02;-1.50;99.90
42913;DHT22;50720;54.324;18.558;2022-11-20T09:21:51;-1.50;99.90
42913;DHT22;50720;54.324;18.558;2022-11-20T09:24:26;-1.50;99.90
42913;DHT22;50720;54.324;18.558;2022-11-20T09:26:56;-1.50;99.90
42913;DHT22;50720;54.324;18.558;2022-11-20T09:29:26;-1.50;99.90
42913;DHT22;50720;54.324;18.558;2022-11-20T09:31:55;-1.50;99.90
42913;DHT22;50720;54.324;18.558;2022-11-20T09:34:27;-1.40;99.90
42913;DHT22;50720;54.324;18.558;2022-11-20T09:36:56;-1.40;99.90
42913;DHT22;50720;54.324;18.558;2022-11-20T09:39:33;-1.30;99.90
42913;DHT22;50720;54.324;18.558;2022-11-20T09:42:23;-1.30;99.90
42913;DHT22;50720;54.324;18.558;2022-11-20T09:45:08;-1.40;99.90
42913;DHT22;50720;54.324;18.558;2022-11-20T09:47:50;-1.40;99.90
42913;DHT22;50720;54.324;18.558;2022-11-20T09:50:32;-1.40;99.90
42913;DHT22;50720;54.324;18.558;2022-11-20T09:53:12;-1.40;99.90
42913;DHT22;50720;54.324;18.558;2022-11-20T09:55:43;-1.40;99.90
42913;DHT22;50720;54.324;18.558;2022-11-20T09:58:20;-1.40;99.90
42913;DHT22;50720;54.324;18.558;2022-11-20T10:00:53;-1.30;99.90
42913;DHT22;50720;54.324;18.558;2022-11-20T10:03:36;-1.20;99.90
42913;DHT22;50720;54.324;18.558;2022-11-20T10:06:13;-1.10;99.90
42913;DHT22;50720;54.324;18.558;2022-11-20T10:08:47;-1.20;99.90
42913;DHT22;50720;54.324;18.558;2022-11-20T10:11:21;-1.30;99.90
42913;DHT22;50720;54.324;18.558;2022-11-20T10:13:59;-1.20;99.90
42913;DHT22;50720;54.324;18.558;2022-11-20T10:16:43;-1.30;99.90
42913;DHT22;50720;54.324;18.558;2022-11-20T10:19:29;-1.40;99.90
42913;DHT22;50720;54.324;18.558;2022-11-20T10:22:10;-1.30;99.90
42913;DHT22;50720;54.324;18.558;2022-11-20T10:24:51;-1.30;99.90
42913;DHT22;50720;54.324;18.558;2022-11-20T10:27:53;-1.30;99.90
42913;DHT22;50720;54.324;18.558;2022-11-20T10:30:26;-1.30;99.90
42913;DHT22;50720;54.324;18.558;2022-11-20T10:33:04;-1.40;99.90
42913;DHT22;50720;54.324;18.558;2022-11-20T10:35:40;-1.30;99.90
42913;DHT22;50720;54.324;18.558;2022-11-20T10:38:18;-1.30;99.90
42913;DHT22;50720;54.324;18.558;2022-11-20T10:40:54;-1.20;99.90
42913;DHT22;50720;54.324;18.558;2022-11-20T10:43:46;-1.30;99.90
42913;DHT22;50720;54.324;18.558;2022-11-20T10:46:17;-1.10;99.90
42913;DHT22;50720;54.324;18.558;2022-11-20T10:48:48;-1.00;99.90
42913;DHT22;50720;54.324;18.558;2022-11-20T10:51:30;-1.00;99.90
42913;DHT22;50720;54.324;18.558;2022-11-20T10:54:16;-1.00;99.90
42913;DHT22;50720;54.324;18.558;2022-11-20T10:56:50;-0.90;99.90
42913;DHT22;50720;54.324;18.558;2022-11-20T10:59:38;-0.90;99.90
42913;DHT22;50720;54.324;18.558;2022-11-20T11:02:16;-0.90;99.90
42913;DHT22;50720;54.324;18.558;2022-11-20T11:04:47;-0.90;99.90
42913;DHT22;50720;54.324;18.558;2022-11-20T11:07:20;-0.80;99.90
42913;DHT22;50720;54.324;18.558;2022-11-20T11:09:54;-0.90;99.90
42913;DHT22;50720;54.324;18.558;2022-11-20T11:12:25;-1.10;99.90
42913;DHT22;50720;54.324;18.558;2022-11-20T11:14:56;-1.10;99.90
42913;DHT22;50720;54.324;18.558;2022-11-20T11:17:26;-1.10;99.90
42913;DHT22;50720;54.324;18.558;2022-11-20T11:20:02;-1.00;99.90
42913;DHT22;50720;54.324;18.558;2022-11-20T11:22:34;-0.90;99.90
42913;DHT22;50720;54.324;18.558;2022-11-20T11:25:30;-0.90;99.90
42913;DHT22;50720;54.324;18.558;2022-11-20T11:28:03;-0.90;99.90
42913;DHT22;50720;54.324;18.558;2022-11-20T11:30:42;-0.90;99.90
42913;DHT22;50720;54.324;18.558;2022-11-20T11:33:19;-0.90;99.90
42913;DHT22;50720;54.324;18.558;2022-11-20T11:35:51;-0.80;99.90
42913;DHT22;50720;54.324;18.558;2022-11-20T11:38:27;-0.80;99.90
42913;DHT22;50720;54.324;18.558;2022-11-20T11:41:00;-0.80;99.90
42913;DHT22;50720;54.324;18.558;2022-11-20T11:43:31;-0.80;99.90
42913;DHT22;50720;54.324;18.558;2022-11-20T11:46:34;-0.80;99.90
42913;DHT22;50720;54.324;18.558;2022-11-20T11:49:16;-0.80;99.90
42913;DHT22;50720;54.324;18.558;2022-11-20T11:52:00;-0.80;99.90
42913;DHT22;50720;54.324;18.558;2022-11-20T11:54:36;-0.80;99.90
42913;DHT22;50720;54.324;18.558;2022-11-20T11:57:15;-0.80;99.90
42913;DHT22;50720;54.324;18.558;2022-11-20T11:59:57;-0.70;99.90
42913;DHT22;50720;54.324;18.558;2022-11-20T12:02:36;-0.70;99.90
42913;DHT22;50720;54.324;18.558;2022-11-20T12:05:15;-0.70;99.90
42913;DHT22;50720;54.324;18.558;2022-11-20T12:07:47;-0.60;99.90
42913;DHT22;50720;54.324;18.558;2022-11-20T12:10:23;-0.60;99.90
42913;DHT22;50720;54.324;18.558;2022-11-20T12:13:03;-0.70;99.90
42913;DHT22;50720;54.324;18.558;2022-11-20T12:15:34;-0.60;99.90
42913;DHT22;50720;54.324;18.558;2022-11-20T12:18:08;-0.50;99.90
42913;DHT22;50720;54.324;18.558;2022-11-20T12:20:48;-0.40;99.90
42913;DHT22;50720;54.324;18.558;2022-11-20T12:23:28;-0.40;99.90
42913;DHT22;50720;54.324;18.558;2022-11-20T12:26:05;-0.50;99.90
42913;DHT22;50720;54.324;18.558;2022-11-20T12:28:47;-0.40;99.90
42913;DHT22;50720;54.324;18.558;2022-11-20T12:31:36;-0.40;99.90
42913;DHT22;50720;54.324;18.558;2022-11-20T12:34:18;-0.50;99.90
42913;DHT22;50720;54.324;18.558;2022-11-20T12:36:54;-0.50;99.90
42913;DHT22;50720;54.324;18.558;2022-11-20T12:39:36;-0.50;99.90
42913;DHT22;50720;54.324;18.558;2022-11-20T12:42:24;-0.50;99.90
42913;DHT22;50720;54.324;18.558;2022-11-20T12:55:08;-0.50;99.90
42913;DHT22;50720;54.324;18.558;2022-11-20T12:57:44;-0.50;99.90
42913;DHT22;50720;54.324;18.558;2022-11-20T13:00:19;-0.60;99.90
42913;DHT22;50720;54.324;18.558;2022-11-20T13:06:05;-0.60;99.90
42913;DHT22;50720;54.324;18.558;2022-11-20T13:08:41;-0.60;99.90
42913;DHT22;50720;54.324;18.558;2022-11-20T13:11:18;-0.60;99.90
42913;DHT22;50720;54.324;18.558;2022-11-20T13:14:02;-0.60;99.90
42913;DHT22;50720;54.324;18.558;2022-11-20T13:16:37;-0.60;99.90
42913;DHT22;50720;54.324;18.558;2022-11-20T13:19:11;-0.60;99.90
42913;DHT22;50720;54.324;18.558;2022-11-20T13:21:44;-0.60;99.90
42913;DHT22;50720;54.324;18.558;2022-11-20T13:24:25;-0.60;99.90
42913;DHT22;50720;54.324;18.558;2022-11-20T13:27:03;-0.70;99.90
42913;DHT22;50720;54.324;18.558;2022-11-20T13:29:34;-0.70;99.90
42913;DHT22;50720;54.324;18.558;2022-11-20T13:32:06;-0.70;99.90
42913;DHT22;50720;54.324;18.558;2022-11-20T13:34:36;-0.70;99.90
42913;DHT22;50720;54.324;18.558;2022-11-20T13:37:26;-0.70;99.90
42913;DHT22;50720;54.324;18.558;2022-11-20T13:40:12;-0.80;99.90
42913;DHT22;50720;54.324;18.558;2022-11-20T13:42:45;-0.80;99.90
42913;DHT22;50720;54.324;18.558;2022-11-20T13:45:24;-0.80;99.90
42913;DHT22;50720;54.324;18.558;2022-11-20T13:47:55;-0.70;99.90
42913;DHT22;50720;54.324;18.558;2022-11-20T13:50:40;-0.70;99.90
42913;DHT22;50720;54.324;18.558;2022-11-20T13:53:23;-0.70;99.90
42913;DHT22;50720;54.324;18.558;2022-11-20T13:56:00;-0.70;99.90
42913;DHT22;50720;54.324;18.558;2022-11-20T13:58:44;-0.70;99.90
42913;DHT22;50720;54.324;18.558;2022-11-20T14:01:23;-0.80;99.90
42913;DHT22;50720;54.324;18.558;2022-11-20T14:03:53;-0.80;99.90
42913;DHT22;50720;54.324;18.558;2022-11-20T14:06:39;-0.80;99.90
42913;DHT22;50720;54.324;18.558;2022-11-20T14:09:24;-0.80;99.90
42913;DHT22;50720;54.324;18.558;2022-11-20T14:11:55;-0.80;99.90
42913;DHT22;50720;54.324;18.558;2022-11-20T14:14:25;-0.80;99.90
42913;DHT22;50720;54.324;18.558;2022-11-20T14:17:08;-0.80;99.90
42913;DHT22;50720;54.324;18.558;2022-11-20T14:19:39;-0.80;99.90
42913;DHT22;50720;54.324;18.558;2022-11-20T14:22:17;-0.80;99.90
42913;DHT22;50720;54.324;18.558;2022-11-20T14:25:01;-0.80;99.90
42913;DHT22;50720;54.324;18.558;2022-11-20T14:27:34;-0.80;99.90
42913;DHT22;50720;54.324;18.558;2022-11-20T14:30:06;-0.80;99.90
42913;DHT22;50720;54.324;18.558;2022-11-20T14:32:36;-0.80;99.90
42913;DHT22;50720;54.324;18.558;2022-11-20T14:35:09;-0.80;99.90
42913;DHT22;50720;54.324;18.558;2022-11-20T14:37:41;-0.80;99.90
42913;DHT22;50720;54.324;18.558;2022-11-20T14:40:26;-0.90;99.90
42913;DHT22;50720;54.324;18.558;2022-11-20T14:42:58;-0.90;99.90
42913;DHT22;50720;54.324;18.558;2022-11-20T14:45:28;-0.90;99.90
42913;DHT22;50720;54.324;18.558;2022-11-20T14:47:58;-0.90;99.90
42913;DHT22;50720;54.324;18.558;2022-11-20T14:50:29;-0.90;99.90
42913;DHT22;50720;54.324;18.558;2022-11-20T14:53:00;-0.90;99.90
42913;DHT22;50720;54.324;18.558;2022-11-20T14:55:33;-0.90;99.90
42913;DHT22;50720;54.324;18.558;2022-11-20T14:58:04;-0.90;99.90
42913;DHT22;50720;54.324;18.558;2022-11-20T15:00:35;-0.90;99.90
42913;DHT22;50720;54.324;18.558;2022-11-20T15:03:15;-0.90;99.90
42913;DHT22;50720;54.324;18.558;2022-11-20T15:05:46;-0.90;99.90
42913;DHT22;50720;54.324;18.558;2022-11-20T15:08:17;-0.90;99.90
42913;DHT22;50720;54.324;18.558;2022-11-20T15:10:50;-0.90;99.90
42913;DHT22;50720;54.324;18.558;2022-11-20T15:13:26;-0.90;99.90
42913;DHT22;50720;54.324;18.558;2022-11-20T15:16:00;-0.90;99.90
42913;DHT22;50720;54.324;18.558;2022-11-20T15:18:32;-0.90;99.90
42913;DHT22;50720;54.324;18.558;2022-11-20T15:21:10;-1.00;99.90
42913;DHT22;50720;54.324;18.558;2022-11-20T15:23:41;-0.90;99.90
42913;DHT22;50720;54.324;18.558;2022-11-20T15:26:14;-1.00;99.90
42913;DHT22;50720;54.324;18.558;2022-11-20T15:28:47;-1.00;99.90
42913;DHT22;50720;54.324;18.558;2022-11-20T15:31:20;-1.00;99.90
42913;DHT22;50720;54.324;18.558;2022-11-20T15:33:49;-1.00;99.90
42913;DHT22;50720;54.324;18.558;2022-11-20T15:36:19;-1.00;99.90
42913;DHT22;50720;54.324;18.558;2022-11-20T15:38:49;-1.00;99.90
42913;DHT22;50720;54.324;18.558;2022-11-20T15:41:20;-1.00;99.90
42913;DHT22;50720;54.324;18.558;2022-11-20T15:43:50;-1.00;99.90
42913;DHT22;50720;54.324;18.558;2022-11-20T15:46:25;-1.00;99.90
42913;DHT22;50720;54.324;18.558;2022-11-20T15:48:56;-1.00;99.90
42913;DHT22;50720;54.324;18.558;2022-11-20T15:51:27;-1.00;99.90
42913;DHT22;50720;54.324;18.558;2022-11-20T15:53:58;-1.00;99.90
42913;DHT22;50720;54.324;18.558;2022-11-20T15:56:29;-1.00;99.90
42913;DHT22;50720;54.324;18.558;2022-11-20T15:59:01;-1.10;99.90
42913;DHT22;50720;54.324;18.558;2022-11-20T16:01:30;-1.00;99.90
42913;DHT22;50720;54.324;18.558;2022-11-20T16:04:00;-1.00;99.90
42913;DHT22;50720;54.324;18.558;2022-11-20T16:06:30;-1.00;99.90